Albion, IN

1:35 AM EST on December 27, 2014 (GMT -0500)
Central Noble Schools | Change Station
CLOSE
Current Station
Personal Weather Station
Location: Albion, IN
Elevation: 948 ft
Nearby Weather Stations

Elev 948 ft 41.40 °N, 85.42 °W | Updated 1 minute ago

Overcast
Overcast
44.2 °F
Feels Like 44 °F
N
2.0
Wind Variable Wind from West
Gusts 8.0 mph

Today
High -- | Low -- °F
--% Chance of Precip.
Yesterday
High -- | Low -- °F
Precip. -- in
8:06 AM 5:18 PM
Waxing Crescent, 33% visible
Pressure 30.11 in
Visibility 10.0 miles
Clouds Overcast 3000 ft
Windchill 44 °F
Dew Point 42 °F
Humidity 90%
Rainfall 0.00 in
Snow Depth Not available.
UV 0 out of 12
Pollen .10 out of 12
Air Quality Not available.
Flu Activity Not available.
METAR KGWB 270615Z AUTO 20004KT 10SM OVC030 07/03 A3011 RMK AO2

More Conditions Fewer Conditions

Pressure 30.11 in
Visibility 10.0 miles
Clouds Overcast 3000 ft
Windchill 44 °F
Dew Point 42 °F
Humidity 90%
Rainfall 0.00 in
Snow Depth Not available.
UV 0 out of 12
Pollen .10 out of 12
Air Quality Not available.
Flu Activity Not available.
METAR KGWB 270615Z AUTO 20004KT 10SM OVC030 07/03 A3011 RMK AO2

More Conditions Fewer Conditions

10-Day Weather Forecast

Almanac

Astronomy

Dec. 27, 2014 Rise Set
Actual Time
Civil Twilight
Nautical Twilight
Astronomical Twilight
Moon
Length of Visible Light
Length of Day
Tomorrow will be .
, % of the Moon is Illuminated

Today's Extremes

State Highs State Lows

Community

WunderPhotos

Upload Photos

1,780,859 photos uploaded!

WunderBlogs® & News

Nearby

Air Quality

  Air Quality AQ Index Pollutant
Not available.

Snow Depth

Station Depth Elevation

Earthquake Activity

City Distance Mag. Time & Date
Minimum magnitude displayed is 2.5.

Coastal Water Temperatures

Place Temperature

Nearby Weather Stations